Hundvaag 1 weather for Nov 2003
Month no. 197
Obs.
Da.
Temp. Dew Point Precip. Wind
Speed
Wind gusts Cloud cover Press. Humidity Wind dir. Sunny OPT
01.11.2003 7,7   0,0 1,0   0 999,0 81,0 67,5   62,5 %
02.11.2003 8,4   0,1 20,0   0 997,6 81,0 135,0   50,0 %
03.11.2003 8,9   23,4 12,0   8 996,0 93,0 180,0 1 57,5 %
04.11.2003 7,9   6,0 12,0   9 1012,0 81,0 337,5 1 72,5 %
05.11.2003 11,6   0,0 18,0   0 1017,9 94,0 180,0 1 55,0 %
06.11.2003 10,8   0,2 14,0   10 1019,7 62,0 180,0 1 82,5 %
07.11.2003 9,8   0,0 14,0   10 1026,1 43,0 135,0 1 80,0 %
08.11.2003 4,2   0,0 3,0   10 1026,7 93,0 157,5 1 82,5 %
09.11.2003 7,4   0,0 1,0   10 1022,0 87,0   1 85,0 %
10.11.2003 8,9   0,0 9,0   0 1021,4 81,0 157,5   57,5 %
11.11.2003 6,9   0,0 3,0   0 1022,0 81,0 157,5 1 60,0 %
12.11.2003 7,0   0,0 2,0   10 1018,7 87,0   1 85,0 %
13.11.2003 6,4   0,0 3,0   4 1017,3 65,0   1 70,0 %
14.11.2003 7,3   2,4 13,0   0 1016,1 87,0 157,5   52,5 %
15.11.2003 8,5   2,1 16,0   0 1006,6 66,0 90,0   52,5 %
16.11.2003 6,8   0,0 5,0   7 1008,6 87,0 157,5 1 75,0 %
17.11.2003 4,1   5,9 5,0   10 1010,0 93,0 157,5 1 77,5 %
18.11.2003 7,9   3,3 10,0   0 1008,6 93,0 157,5   55,0 %
19.11.2003 9,2   7,3 12,0   0 1006,3 87,0 270,0   50,0 %
20.11.2003 5,9   1,8 3,0   2 1010,7 93,0   1 65,0 %
21.11.2003 8,2   0,7 8,0   0 1007,3 93,0 180,0   57,5 %
22.11.2003 4,8   1,5 8,0   1 1008,7 93,0 135,0   55,0 %
23.11.2003 5,1   0,0 1,0   2 1008,0 70,0   1 65,0 %
24.11.2003 3,4   0,6 4,0   0 1009,7 79,0 135,0   55,0 %
25.11.2003 5,8   0,0 7,0   0 1007,8 87,0 135,0   57,5 %
26.11.2003 9,4   10,7 23,0   0 1002,5 93,0 157,5 1 40,0 %
27.11.2003 7,4   14,8 13,0   0 1001,9 93,0 180,0 1 42,5 %
28.11.2003 5,8   8,6 9,0   4 1005,8 93,0 157,5 1 60,0 %
29.11.2003 9,2   3,7 23,0   0 1008,2 93,0 180,0   45,0 %
30.11.2003 7,3   16,3 12,0   0 1006,0 87,0 135,0   40,0 %
                       
Avrg/Sum 7,4   109,4 9,5   3,2 1011,0 83,9 162,9 17 61,5 %